Latest Weather Observations for Trepell

IDQ60801

Issued at 6:32 am EST Wednesday 1 April 2015 (issued every 30 minutes, with the page automatically refreshed every 10 minutes)

About weather observations | Map of weather stations | Latest weather observations for QLD | Other Formats
Station Details ID: 037036 Name: TREPELL AIRPORT Lat: -21.84 Lon: 140.89 Height: 266.2 m
Data from the previous 72 hours. | See also: Recent months at Trepell
Date/Time
EST
Temp
°C
App
Temp
°C
Dew
Point
Rel
Hum
%
Delta-T
°C
Wind Press
QNH
hPa
Press
MSL
hPa
Rain
since 9 am
mm
Dir
 
Spd
km/h
Gust
km/h
Spd
kts
Gust
kts
01/06:30am 21.9 20.6 15.7 68 3.8 ENE 17 20 9 11 1014.7 1012.9 0.6
01/06:00am 22.0 21.1 15.8 68 3.8 NE 15 17 8 9 1014.6 1012.8 0.6
01/05:30am 22.1 21.8 16.4 70 3.5 NE 13 15 7 8 1014.6 1012.8 0.6
01/05:00am 22.7 22.8 17.4 72 3.3 ENE 13 15 7 8 1014.2 1012.4 0.6
01/04:30am 22.4 22.7 18.0 76 2.8 E 13 15 7 8 1014.2 1012.4 0.6
01/04:00am 22.2 23.4 18.2 78 2.5 E 9 13 5 7 1014.1 1012.3 0.6
01/03:30am 22.8 23.4 17.7 73 3.2 E 11 15 6 8 1014.1 1012.3 0.6
01/03:00am 22.9 24.1 18.2 75 3.0 ENE 9 13 5 7 1014.2 1012.4 0.6
01/02:30am 23.0 25.6 18.5 76 2.9 NE 2 7 1 4 1014.7 1012.9 0.6
01/02:00am 23.3 25.0 18.6 75 3.0 ENE 7 9 4 5 1015.0 1013.2 0.6
01/01:30am 23.7 24.7 18.6 73 3.3 ENE 11 13 6 7 1015.4 1013.6 0.6
01/01:00am 24.0 24.2 18.6 72 3.4 E 15 20 8 11 1015.6 1013.8 0.6
01/12:30am 24.1 24.2 19.2 74 3.2 E 17 20 9 11 1015.7 1014.0 0.6
 
Date/Time
EST
Temp
°C
App
Temp
°C
Dew
Point
Rel
Hum
%
Delta-T
°C
Wind Press
QNH
hPa
Press
MSL
hPa
Rain
since 9 am
mm
Dir
 
Spd
km/h
Gust
km/h
Spd
kts
Gust
kts
31/11:30pm 24.3 24.3 20.2 78 2.7 ENE 20 26 11 14 1015.7 1014.0 0.6
31/11:00pm 24.1 23.5 20.6 81 2.3 E 24 33 13 18 1015.7 1014.0 0.6
31/10:30pm 24.2 22.7 20.3 79 2.6 ESE 28 35 15 19 1016.4 1014.6 0.4
31/10:00pm 24.5 23.2 19.8 75 3.1 SE 26 32 14 17 1016.5 1014.7 0.2
31/09:30pm 24.8 22.4 20.3 76 3.0 SE 33 41 18 22 1016.4 1014.6 0.2
31/09:00pm 24.8 22.1 19.2 71 3.6 S 32 43 17 23 1016.4 1014.6 0.0
31/08:30pm 29.4 26.7 16.6 46 8.1 SSE 26 32 14 17 1015.4 1013.6 0.0
31/08:00pm 31.7 30.5 13.9 34 10.9 NNE 13 17 7 9 1013.8 1012.0 0.0
31/07:30pm 32.1 30.7 13.3 31 11.4 NE 13 17 7 9 1013.7 1011.9 0.0
31/07:00pm 32.8 31.0 13.4 30 11.8 ENE 15 20 8 11 1013.3 1011.5 0.0
31/06:30pm 33.0 30.7 13.1 30 12.1 NE 17 20 9 11 1012.9 1011.1 0.0
31/06:00pm 33.4 31.3 13.5 30 12.2 NE 17 22 9 12 1012.5 1010.7 0.0
31/05:30pm 34.1 31.2 14.1 30 12.4 ENE 22 28 12 15 1012.3 1010.4 0.0
31/05:00pm 33.9 32.9 13.4 29 12.6 N 11 20 6 11 1012.3 1010.4 0.0
31/04:30pm 34.6 32.4 13.4 28 13.0 SE 17 20 9 11 1012.2 1010.3 0.0
31/04:00pm 35.9 34.3 11.5 23 14.6 W 11 19 6 10 1011.6 1009.8 0.0
31/03:30pm 36.4 34.5 11.9 23 14.8 NNW 13 19 7 10 1011.7 1009.9 0.0
31/03:00pm 36.4 35.1 11.3 22 15.1 S 9 15 5 8 1012.2 1010.3 0.0
31/02:30pm 36.3 35.0 11.2 22 15.0 NW 9 24 5 13 1012.7 1010.9 0.0
31/02:00pm 35.8 34.2 11.4 23 14.6 NNW 11 22 6 12 1013.6 1011.8 0.0
31/01:30pm 35.6 34.5 11.9 24 14.3 ESE 9 17 5 9 1014.0 1012.2 0.0
31/01:00pm 34.9 32.3 11.9 24 13.8 ENE 17 28 9 15 1014.5 1012.7 0.0
31/12:30pm 34.7 32.6 12.4 26 13.5 NE 15 24 8 13 1015.0 1013.2 0.0
31/12:00pm 34.4 31.6 12.7 27 13.2 NNE 19 32 10 17 1015.7 1014.0 0.0
31/11:30am 33.5 30.8 13.0 29 12.5 NNE 19 28 10 15 1016.5 1014.7 0.0
31/11:00am 33.8 31.2 13.8 30 12.3 NNE 20 32 11 17 1017.0 1015.2 0.0
31/10:30am 32.9 29.8 13.5 30 11.9 NE 22 32 12 17 1017.2 1015.4 0.0
31/10:00am 32.4 28.8 13.1 31 11.7 NNE 24 32 13 17 1017.3 1015.5 0.0
31/09:30am 31.8 29.4 14.4 34 10.7 ENE 20 26 11 14 1017.4 1015.6 0.0
31/09:00am 30.5 28.6 15.8 41 9.2 E 20 26 11 14 1017.6 1015.8 0.0
31/08:30am 29.7 28.7 16.5 45 8.3 ESE 17 24 9 13 1017.5 1015.7 0.0
31/08:00am 27.9 27.7 16.8 50 7.0 SE 13 17 7 9 1017.2 1015.4 0.0
31/07:30am 27.1 27.4 17.0 54 6.4 SSE 11 19 6 10 1016.8 1015.0 0.0
31/07:00am 25.5 26.5 16.9 59 5.4 SE 7 11 4 6 1016.5 1014.7 0.0
31/06:30am 26.1 26.4 18.0 61 5.2 SE 13 15 7 8 1016.0 1014.2 0.0
31/06:00am 26.6 27.1 17.4 57 5.8 ESE 11 15 6 8 1015.6 1013.8 0.0
31/05:30am 27.5 27.1 16.1 49 7.1 ESE 13 17 7 9 1015.3 1013.5 0.0
31/05:00am 27.3 26.3 16.6 52 6.7 E 17 20 9 11 1015.0 1013.2 0.0
31/04:30am 27.4 24.2 16.4 51 6.9 ESE 28 35 15 19 1014.8 1013.0 0.0
31/04:00am 26.6 25.3 18.2 60 5.4 ESE 22 28 12 15 1014.9 1013.1 0.0
31/03:30am 28.5 27.7 16.1 47 7.8 S 15 20 8 11 1015.0 1013.2 0.0
31/03:00am 29.7 27.3 15.4 42 8.9 SSE 22 30 12 16 1015.0 1013.2 0.0
31/02:30am 29.8 29.0 15.1 40 9.1 S 13 17 7 9 1015.0 1013.2 0.0
31/02:00am 29.9 29.5 15.2 41 9.1 E 11 15 6 8 1015.2 1013.4 0.0
31/01:30am 30.0 29.4 15.7 42 8.9 ESE 13 17 7 9 1015.6 1013.8 0.0
31/01:00am 30.4 29.7 15.3 40 9.4 E 13 19 7 10 1016.0 1014.2 0.0
31/12:30am 30.5 30.4 15.0 39 9.6 SE 9 11 5 6 1016.3 1014.5 0.0
31/12:00am 30.7 32.3 14.8 38 9.8 CALM 0 2 0 1 1016.6 1014.8 0.0
 
Date/Time
EST
Temp
°C
App
Temp
°C
Dew
Point
Rel
Hum
%
Delta-T
°C
Wind Press
QNH
hPa
Press
MSL
hPa
Rain
since 9 am
mm
Dir
 
Spd
km/h
Gust
km/h
Spd
kts
Gust
kts
30/11:30pm 30.7 30.3 15.2 39 9.6 SSE 11 13 6 7 1016.8 1015.0 0.0
30/11:00pm 30.6 29.6 15.5 40 9.4 SSE 15 19 8 10 1016.9 1015.1 0.0
30/10:30pm 31.2 31.3 14.4 36 10.3 SSW 7 9 4 5 1016.8 1015.0 0.0
30/10:00pm 31.0 30.2 15.0 38 9.9 SW 13 15 7 8 1016.8 1015.0 0.0
30/09:30pm 30.8 29.3 15.2 38 9.7 SW 17 22 9 12 1017.0 1015.2 0.0
30/09:00pm 30.7 28.3 15.5 39 9.5 SW 22 32 12 17 1017.0 1015.2 0.0
30/08:30pm 33.1 32.0 13.2 30 12.1 W 11 13 6 7 1016.6 1014.8 0.0
30/08:00pm 32.8 31.4 13.4 30 11.8 WNW 13 20 7 11 1016.3 1014.5 0.0
30/07:30pm 34.0 30.7 12.9 28 12.8 SSE 22 28 12 15 1015.7 1014.0 0.0
30/07:00pm 34.8 32.0 11.2 24 14.0 SSE 17 19 9 10 1015.0 1013.2 0.0
30/06:30pm 35.0 31.8 12.0 25 13.9 SE 20 24 11 13 1014.8 1013.0 0.0
30/06:00pm 35.5 33.1 12.5 25 14.0 ESE 17 22 9 12 1014.6 1012.8 0.0
30/05:30pm 35.7 32.0 12.6 25 14.1 ESE 24 35 13 19 1014.5 1012.7 0.0
30/05:00pm 36.8 32.0 12.9 24 14.7 ESE 30 46 16 25 1014.1 1012.3 0.0
30/04:55pm 36.3 34.6 12.5 24 14.5 S 13 46 7 25 1014.1 1012.3 0.0
30/04:30pm 36.2 35.1 11.8 23 14.7 E 9 19 5 10 1014.1 1012.3 0.0
30/04:00pm 36.7 35.1 11.5 22 15.2 ENE 11 19 6 10 1014.1 1012.3 0.0
30/03:30pm 37.1 36.3 11.8 22 15.3 E 7 19 4 10 1014.2 1012.4 0.0
30/03:00pm 35.6 33.9 11.3 23 14.5 ESE 11 20 6 11 1014.6 1012.8 0.0
30/02:30pm 35.9 34.9 12.2 24 14.4 WSW 9 15 5 8 1014.7 1012.9 0.0
30/02:00pm 35.4 34.4 11.1 23 14.5 NNE 7 13 4 7 1015.3 1013.5 0.0
30/01:30pm 35.8 33.2 12.1 24 14.3 NE 17 20 9 11 1015.7 1014.0 0.0
30/01:00pm 34.6 32.3 11.7 25 13.7 NNE 15 24 8 13 1016.2 1014.4 0.0
30/12:30pm 36.1 33.8 13.0 25 14.2 N 17 28 9 15 1016.6 1014.8 0.0
30/12:00pm 34.4 32.0 12.7 27 13.2 N 17 30 9 16 1017.1 1015.3 0.0
30/11:30am 34.3 31.3 12.6 27 13.1 NNE 20 32 11 17 1017.6 1015.8 0.0
30/11:00am 32.9 29.3 12.0 28 12.5 NNE 22 30 12 16 1018.0 1016.2 0.0
30/10:30am 32.5 29.2 12.7 30 11.9 NNE 22 32 12 17 1018.1 1016.3 0.0
30/10:00am 32.2 29.5 13.4 32 11.4 NNE 20 28 11 15 1018.5 1016.7 0.0
30/09:30am 31.6 28.6 13.8 34 10.9 NNE 22 32 12 17 1018.6 1016.8 0.0
30/09:00am 30.3 28.2 14.8 39 9.5 NE 19 26 10 14 1018.5 1016.7 0.0
30/08:30am 28.6 27.5 15.2 44 8.3 ENE 15 22 8 12 1018.4 1016.6 0.0
30/08:00am 27.8 27.9 15.5 47 7.6 ENE 9 15 5 8 1018.1 1016.3 0.0
30/07:30am 26.8 27.3 15.5 50 7.0 E 7 9 4 5 1017.6 1015.8 0.0
30/07:00am 26.0 26.1 15.4 52 6.5 E 9 11 5 6 1017.2 1015.4 0.0
30/06:30am 25.7 27.4 15.1 52 6.5 CALM 0 4 0 2 1016.9 1015.1 0.0
30/06:00am 26.1 26.5 15.2 51 6.7 ESE 7 9 4 5 1016.7 1014.9 0.0
30/05:30am 26.5 26.5 15.2 49 6.9 ESE 9 13 5 7 1016.2 1014.4 0.0
30/05:00am 26.7 25.9 15.1 49 7.1 ESE 13 17 7 9 1015.8 1014.1 0.0
30/04:30am 27.0 26.4 14.7 47 7.5 ESE 11 15 6 8 1015.6 1013.8 0.0
30/04:00am 27.5 27.0 14.8 45 7.7 SE 11 15 6 8 1015.6 1013.8 0.0
30/03:30am 27.7 27.1 14.7 45 7.9 SE 11 15 6 8 1015.6 1013.8 0.0
30/03:00am 28.1 27.4 14.3 42 8.4 SE 11 17 6 9 1015.6 1013.8 0.0
30/02:30am 28.3 27.2 14.2 42 8.6 SE 13 19 7 10 1015.7 1014.0 0.0
30/02:00am 28.9 26.9 13.9 39 9.1 SSE 17 24 9 13 1015.7 1014.0 0.0
30/01:30am 29.3 27.3 13.9 39 9.3 SSE 17 24 9 13 1016.4 1014.6 0.0
30/01:00am 29.9 27.7 14.4 38 9.5 SE 19 24 10 13 1016.9 1015.1 0.0
30/12:30am 30.4 27.3 14.5 38 9.8 SE 24 32 13 17 1017.1 1015.3 0.0
30/12:00am 30.4 27.1 14.1 37 9.9 SSE 24 30 13 16 1017.2 1015.4 0.0
 
Date/Time
EST
Temp
°C
App
Temp
°C
Dew
Point
Rel
Hum
%
Delta-T
°C
Wind Press
QNH
hPa
Press
MSL
hPa
Rain
since 9 am
mm
Dir
 
Spd
km/h
Gust
km/h
Spd
kts
Gust
kts
29/11:30pm 30.6 27.2 13.8 35 10.2 SSE 24 33 13 18 1017.2 1015.4 0.0
29/11:00pm 30.8 26.8 13.1 34 10.6 SSE 26 33 14 18 1017.3 1015.5 0.0
29/10:30pm 31.6 28.0 12.9 32 11.3 SSE 24 32 13 17 1017.4 1015.6 0.0
29/10:00pm 32.0 29.1 12.8 31 11.6 S 20 28 11 15 1017.3 1015.5 0.0
29/09:30pm 32.7 28.1 12.3 28 12.2 SSE 28 37 15 20 1017.0 1015.2 0.0
29/09:26pm 32.8 28.2 12.4 29 12.3 SSE 28 37 15 20 1016.9 1015.1 0.0
29/09:00pm 32.2 30.5 9.7 25 12.9 E 9 11 5 6 1016.3 1014.5 0.0
29/08:30pm 33.0 30.5 9.7 24 13.4 E 13 13 7 7 1016.0 1014.2 0.0
29/08:00pm 33.7 31.4 9.0 22 14.1 E 11 13 6 7 1015.7 1014.0 0.0
29/07:30pm 34.6 32.3 9.1 21 14.7 E 11 13 6 7 1015.2 1013.4 0.0
29/07:00pm 35.6 33.2 9.9 21 15.0 ENE 13 17 7 9 1014.7 1012.9 0.0
29/06:30pm 36.2 33.3 9.7 20 15.5 E 15 22 8 12 1014.5 1012.7 0.0
29/06:00pm 36.8 34.6 9.4 19 16.0 ENE 11 19 6 10 1014.1 1012.3 0.0
29/05:30pm 37.2 35.1 9.7 19 16.2 NNE 11 17 6 9 1013.8 1012.0 0.0
29/05:00pm 37.5 35.3 9.2 18 16.5 E 11 20 6 11 1013.7 1011.9 0.0
29/04:30pm 37.3 34.8 9.8 19 16.2 ESE 13 24 7 13 1013.7 1011.9 0.0
29/04:00pm 37.8 36.0 9.4 18 16.6 N 9 15 5 8 1014.0 1012.2 0.0
29/03:30pm 37.8 35.8 10.2 19 16.4 NE 11 17 6 9 1013.9 1012.1 0.0
29/03:00pm 37.9 34.6 9.5 18 16.7 NE 17 30 9 16 1014.0 1012.2 0.0
29/02:30pm 37.2 35.7 10.5 20 15.9 NNW 9 17 5 9 1014.3 1012.5 0.0
29/02:00pm 36.9 33.8 10.2 20 15.8 NNE 17 28 9 15 1014.8 1013.0 0.0
29/01:30pm 37.8 34.3 11.0 20 16.1 NE 20 28 11 15 1015.2 1013.4 0.0
29/01:00pm 35.9 32.8 10.2 21 15.1 NNE 17 28 9 15 1015.7 1014.0 0.0
29/12:30pm 35.8 32.1 10.1 21 15.1 NNE 20 32 11 17 1016.4 1014.6 0.0
29/12:00pm 35.8 32.3 10.8 22 14.8 NNE 20 33 11 18 1016.8 1015.0 0.0
29/11:30am 34.6 31.0 10.4 23 14.2 NNE 20 32 11 17 1017.3 1015.5 0.0
29/11:00am 33.9 29.5 10.5 24 13.7 NNE 24 32 13 17 1017.6 1015.8 0.0
29/10:30am 33.5 28.6 11.4 26 13.1 NNE 28 37 15 20 1017.6 1015.8 0.0
29/10:00am 32.8 28.3 11.3 27 12.7 NNE 26 35 14 19 1017.7 1015.9 0.0
29/09:30am 32.7 28.4 10.7 26 12.9 NNE 24 33 13 18 1017.8 1016.0 0.0
29/09:00am 31.6 28.3 12.9 32 11.2 NNE 22 26 12 14 1017.5 1015.7 0.0
29/08:30am 30.5 29.0 15.4 40 9.4 ENE 17 24 9 13 1017.3 1015.5 0.0
29/08:00am 28.7 30.2 17.6 51 7.1 ESE 6 11 3 6 1017.0 1015.2 0.0
29/07:30am 27.2 27.1 10.8 36 9.4 SSW 2 7 1 4 1016.6 1014.8 0.0
29/07:00am 26.8 28.2 17.8 57 5.7 E 7 9 4 5 1016.2 1014.4 0.0

Other Formats:

Comma delimited format used in spreadsheet applications
http://www.bom.gov.au/fwo/IDQ60801/IDQ60801.94338.axf

JavaScript Object Notation format (JSON) in row-major order
http://www.bom.gov.au/fwo/IDQ60801/IDQ60801.94338.json